Mary Alice — WCX9570 — position and weather

sailwx.info

Track history (hours):
 
Tides and Currents Weather Stations Pressure Air Temp Water Temp Dewpoint Dewpoint Depression Visibility Wind Speed Wind Dir Waves Ship Positions

Mary Alice

Owner: Donjon Marine Co., Inc., HILLSIDE, NJ. More information available from US FCC via Universal Licensing System and Coast Guard Vessel Documentation Center.

Last reported at 2014-Nov-01 03:33 UTC. Time now 2014-Nov-01 04:11 UTC.
Position N 40°41' W 074°09'.

Length 21 m; draft 5 m.

Type: Towing. MMSI: 366744020.

Date/timePositionNaut miles runAvg speedWind from/ knotsBaromVisibWave heightAir tempDewpointWater temp
2014-Nov-01 03:33N 40°41' W 074°09'0 0.0
2014-Nov-01 02:32N 40°41' W 074°09'0 0.3
2014-Nov-01 01:31N 40°41' W 074°08'3 2.6
2014-Nov-01 00:33N 40°39' W 074°08'3 3.4
2014-Oct-31 23:33N 40°40' W 074°04'0 0.0
2014-Oct-31 22:33N 40°40' W 074°04'0 0.0
2014-Oct-31 21:33N 40°40' W 074°04'0 0.2
2014-Oct-31 20:33N 40°40' W 074°04'0 0.1
2014-Oct-31 19:33N 40°40' W 074°04'0 0.0
2014-Oct-31 18:33N 40°40' W 074°04'0 0.1
2014-Oct-31 17:33N 40°40' W 074°04'0 0.0
2014-Oct-31 16:33N 40°40' W 074°04'2 2.2
2014-Oct-31 15:33N 40°39' W 074°07'3 2.8
2014-Oct-31 14:30N 40°41' W 074°08'1 0.7
2014-Oct-31 13:32N 40°42' W 074°09'2 2.5
2014-Oct-31 12:33N 40°39' W 074°09'3 3.4
2014-Oct-31 11:33N 40°40' W 074°04'0 0.0
2014-Oct-31 10:33N 40°40' W 074°04'0 0.0
2014-Oct-31 09:34N 40°40' W 074°04'0 0.0
2014-Oct-31 08:34N 40°40' W 074°04'0 0.0
2014-Oct-31 07:33N 40°40' W 074°04'0 0.0
2014-Oct-31 06:33N 40°40' W 074°04'0 0.0
2014-Oct-31 05:33N 40°40' W 074°04'0 0.0
2014-Oct-31 04:33N 40°40' W 074°04'0 0.0
2014-Oct-31 03:34N 40°40' W 074°04'0 0.1
2014-Oct-31 02:34N 40°40' W 074°04'0 0.0
2014-Oct-31 01:33N 40°40' W 074°04'0 0.0
2014-Oct-31 00:33N 40°40' W 074°04'2 1.8
2014-Oct-30 23:33N 40°39' W 074°06'2 2.3
2014-Oct-30 22:33N 40°40' W 074°09'0 0.0
2014-Oct-30 21:33N 40°40' W 074°09'0 0.4
2014-Oct-30 20:33N 40°40' W 074°08'1 1.4
2014-Oct-30 19:33N 40°42' W 074°08'0 0.3
2014-Oct-30 18:33N 40°42' W 074°08'2 1.5
2014-Oct-30 17:33N 40°40' W 074°09'2 1.8
2014-Oct-30 16:33N 40°42' W 074°09'2 1.6
2014-Oct-30 15:33N 40°40' W 074°08'2 1.8
2014-Oct-30 14:33N 40°42' W 074°09'2 1.9
2014-Oct-30 13:33N 40°40' W 074°09'0 0.4
2014-Oct-30 12:33N 40°40' W 074°08'0 0.4
2014-Oct-30 11:33N 40°40' W 074°09'0 0.1
2014-Oct-30 10:33N 40°40' W 074°09'1 1.3
2014-Oct-30 09:33N 40°41' W 074°08'0 0.0
2014-Oct-30 08:34N 40°41' W 074°08'0 0.0
2014-Oct-30 07:33N 40°41' W 074°08'0 0.0
2014-Oct-30 06:33N 40°41' W 074°08'1 0.7
2014-Oct-30 05:33N 40°42' W 074°09'1 0.8
2014-Oct-30 04:34N 40°41' W 074°08'5 4.1
2014-Oct-30 03:24N 40°38' W 074°12'2 2.2
2014-Oct-30 02:34N 40°39' W 074°10'2 2.4
2014-Oct-30 01:33N 40°41' W 074°09'1 0.7
2014-Oct-30 00:33N 40°41' W 074°08'3 2.5
2014-Oct-29 23:33N 40°39' W 074°07'3 3.1
2014-Oct-29 22:33N 40°41' W 074°04'4 4.0
2014-Oct-29 21:33N 40°39' W 074°09'3 2.5
2014-Oct-29 20:33N 40°41' W 074°08'1 0.5
2014-Oct-29 18:33N 40°42' W 074°09'0 0.0
2014-Oct-29 17:32N 40°42' W 074°09'1 0.7
2014-Oct-29 16:33N 40°42' W 074°08'3 3.1
2014-Oct-29 15:33N 40°39' W 074°07'3 3.1
2014-Oct-29 14:33N 40°41' W 074°05'2 2.3
2014-Oct-29 13:33N 40°42' W 074°02'9 8.5
2014-Oct-29 12:33N 40°50' W 073°57'20 0.6
2014-Oct-28 04:33N 41°10' W 073°55'15 7.6
2014-Oct-28 02:33N 40°55' W 073°55'8 7.9
2014-Oct-28 01:34N 40°47' W 073°59'6 5.8
2014-Oct-28 00:33N 40°42' W 074°02'2 2.2
2014-Oct-27 23:33N 40°41' W 074°04'0 0.0
2014-Oct-27 22:34N 40°41' W 074°04'0 0.0
2014-Oct-27 21:33N 40°41' W 074°04'2 2.4
2014-Oct-27 20:34N 40°39' W 074°06'4 4.0
2014-Oct-27 19:33N 40°42' W 074°09'2 2.3
2014-Oct-27 18:33N 40°40' W 074°09'11 4.7
2014-Oct-27 16:08N 40°29' W 074°15'0 0.0
2014-Oct-27 08:10N 40°29' W 074°15'1 0.0
2014-Oct-26 17:08N 40°30' W 074°16'0 0.0
2014-Oct-26 06:31N 40°30' W 074°16'0 0.0
2014-Oct-26 02:29N 40°30' W 074°16'0 0.2
2014-Oct-26 01:16N 40°30' W 074°16'0 0.0
2014-Oct-25 18:29N 40°30' W 074°16'0 0.2
2014-Oct-25 17:06N 40°30' W 074°16'0 0.0
2014-Oct-25 15:33N 40°30' W 074°16'0 0.2
2014-Oct-25 14:24N 40°30' W 074°16'0 0.1
2014-Oct-25 13:33N 40°30' W 074°15'0 0.3
2014-Oct-25 12:33N 40°30' W 074°16'0 0.0
2014-Oct-25 11:31N 40°30' W 074°16'0 0.1
2014-Oct-25 10:20N 40°30' W 074°16'0 0.0
2014-Oct-25 06:24N 40°30' W 074°16'0 0.2
2014-Oct-25 05:31N 40°30' W 074°16'0 0.0
2014-Oct-23 11:27N 40°30' W 074°15'0 0.0
2014-Oct-22 21:29N 40°30' W 074°15'0 0.0
2014-Oct-22 11:20N 40°30' W 074°15'  
Track history (hours):
 
Tides and Currents Weather Stations Pressure Air Temp Water Temp Dewpoint Dewpoint Depression Visibility Wind Speed Wind Dir Waves Ship Positions

Mary Alice

Owner: Donjon Marine Co., Inc., HILLSIDE, NJ. More information available from US FCC via Universal Licensing System and Coast Guard Vessel Documentation Center.

Last reported at 2014-Nov-01 03:33 UTC. Time now 2014-Nov-01 04:11 UTC.
Position N 40°41' W 074°09'.

Length 21 m; draft 5 m.

Type: Towing. MMSI: 366744020.

Date/timePositionNaut miles runAvg speedWind from/ knotsBaromVisibWave heightAir tempDewpointWater temp
2014-Nov-01 03:33N 40°41' W 074°09'0 0.0
2014-Nov-01 02:32N 40°41' W 074°09'0 0.3
2014-Nov-01 01:31N 40°41' W 074°08'3 2.6
2014-Nov-01 00:33N 40°39' W 074°08'3 3.4
2014-Oct-31 23:33N 40°40' W 074°04'0 0.0
2014-Oct-31 22:33N 40°40' W 074°04'0 0.0
2014-Oct-31 21:33N 40°40' W 074°04'0 0.2
2014-Oct-31 20:33N 40°40' W 074°04'0 0.1
2014-Oct-31 19:33N 40°40' W 074°04'0 0.0
2014-Oct-31 18:33N 40°40' W 074°04'0 0.1
2014-Oct-31 17:33N 40°40' W 074°04'0 0.0
2014-Oct-31 16:33N 40°40' W 074°04'2 2.2
2014-Oct-31 15:33N 40°39' W 074°07'3 2.8
2014-Oct-31 14:30N 40°41' W 074°08'1 0.7
2014-Oct-31 13:32N 40°42' W 074°09'2 2.5
2014-Oct-31 12:33N 40°39' W 074°09'3 3.4
2014-Oct-31 11:33N 40°40' W 074°04'0 0.0
2014-Oct-31 10:33N 40°40' W 074°04'0 0.0
2014-Oct-31 09:34N 40°40' W 074°04'0 0.0
2014-Oct-31 08:34N 40°40' W 074°04'0 0.0
2014-Oct-31 07:33N 40°40' W 074°04'0 0.0
2014-Oct-31 06:33N 40°40' W 074°04'0 0.0
2014-Oct-31 05:33N 40°40' W 074°04'0 0.0
2014-Oct-31 04:33N 40°40' W 074°04'0 0.0
2014-Oct-31 03:34N 40°40' W 074°04'0 0.1
2014-Oct-31 02:34N 40°40' W 074°04'0 0.0
2014-Oct-31 01:33N 40°40' W 074°04'0 0.0
2014-Oct-31 00:33N 40°40' W 074°04'2 1.8
2014-Oct-30 23:33N 40°39' W 074°06'2 2.3
2014-Oct-30 22:33N 40°40' W 074°09'0 0.0
2014-Oct-30 21:33N 40°40' W 074°09'0 0.4
2014-Oct-30 20:33N 40°40' W 074°08'1 1.4
2014-Oct-30 19:33N 40°42' W 074°08'0 0.3
2014-Oct-30 18:33N 40°42' W 074°08'2 1.5
2014-Oct-30 17:33N 40°40' W 074°09'2 1.8
2014-Oct-30 16:33N 40°42' W 074°09'2 1.6
2014-Oct-30 15:33N 40°40' W 074°08'2 1.8
2014-Oct-30 14:33N 40°42' W 074°09'2 1.9
2014-Oct-30 13:33N 40°40' W 074°09'0 0.4
2014-Oct-30 12:33N 40°40' W 074°08'0 0.4
2014-Oct-30 11:33N 40°40' W 074°09'0 0.1
2014-Oct-30 10:33N 40°40' W 074°09'1 1.3
2014-Oct-30 09:33N 40°41' W 074°08'0 0.0
2014-Oct-30 08:34N 40°41' W 074°08'0 0.0
2014-Oct-30 07:33N 40°41' W 074°08'0 0.0
2014-Oct-30 06:33N 40°41' W 074°08'1 0.7
2014-Oct-30 05:33N 40°42' W 074°09'1 0.8
2014-Oct-30 04:34N 40°41' W 074°08'5 4.1
2014-Oct-30 03:24N 40°38' W 074°12'2 2.2
2014-Oct-30 02:34N 40°39' W 074°10'2 2.4
2014-Oct-30 01:33N 40°41' W 074°09'1 0.7
2014-Oct-30 00:33N 40°41' W 074°08'3 2.5
2014-Oct-29 23:33N 40°39' W 074°07'3 3.1
2014-Oct-29 22:33N 40°41' W 074°04'4 4.0
2014-Oct-29 21:33N 40°39' W 074°09'3 2.5
2014-Oct-29 20:33N 40°41' W 074°08'1 0.5
2014-Oct-29 18:33N 40°42' W 074°09'0 0.0
2014-Oct-29 17:32N 40°42' W 074°09'1 0.7
2014-Oct-29 16:33N 40°42' W 074°08'3 3.1
2014-Oct-29 15:33N 40°39' W 074°07'3 3.1
2014-Oct-29 14:33N 40°41' W 074°05'2 2.3
2014-Oct-29 13:33N 40°42' W 074°02'9 8.5
2014-Oct-29 12:33N 40°50' W 073°57'20 0.6
2014-Oct-28 04:33N 41°10' W 073°55'15 7.6
2014-Oct-28 02:33N 40°55' W 073°55'8 7.9
2014-Oct-28 01:34N 40°47' W 073°59'6 5.8
2014-Oct-28 00:33N 40°42' W 074°02'2 2.2
2014-Oct-27 23:33N 40°41' W 074°04'0 0.0
2014-Oct-27 22:34N 40°41' W 074°04'0 0.0
2014-Oct-27 21:33N 40°41' W 074°04'2 2.4
2014-Oct-27 20:34N 40°39' W 074°06'4 4.0
2014-Oct-27 19:33N 40°42' W 074°09'2 2.3
2014-Oct-27 18:33N 40°40' W 074°09'11 4.7
2014-Oct-27 16:08N 40°29' W 074°15'0 0.0
2014-Oct-27 08:10N 40°29' W 074°15'1 0.0
2014-Oct-26 17:08N 40°30' W 074°16'0 0.0
2014-Oct-26 06:31N 40°30' W 074°16'0 0.0
2014-Oct-26 02:29N 40°30' W 074°16'0 0.2
2014-Oct-26 01:16N 40°30' W 074°16'0 0.0
2014-Oct-25 18:29N 40°30' W 074°16'0 0.2
2014-Oct-25 17:06N 40°30' W 074°16'0 0.0
2014-Oct-25 15:33N 40°30' W 074°16'0 0.2
2014-Oct-25 14:24N 40°30' W 074°16'0 0.1
2014-Oct-25 13:33N 40°30' W 074°15'0 0.3
2014-Oct-25 12:33N 40°30' W 074°16'0 0.0
2014-Oct-25 11:31N 40°30' W 074°16'0 0.1
2014-Oct-25 10:20N 40°30' W 074°16'0 0.0
2014-Oct-25 06:24N 40°30' W 074°16'0 0.2
2014-Oct-25 05:31N 40°30' W 074°16'0 0.0
2014-Oct-23 11:27N 40°30' W 074°15'0 0.0
2014-Oct-22 21:29N 40°30' W 074°15'0 0.0
2014-Oct-22 11:20N 40°30' W 074°15'  

Dump ship's entire track history